Time;durP1;ratioP1;P1;durP2;ratioP2;P2;SDS_P1;SDS_P2;PMS_P1;PMS_P2;Temp;Humidity;BMP_temperature;BMP_pressure;BME280_temperature;BME280_humidity;BME280_pressure;Samples;Min_cycle;Max_cycle;Signal;HPM_P1;HPM_P2
2022/01/31 00:02:19;;;;;;;10.45;7.00;;;;;;;;;;5022249;28;20482;-60
2022/01/31 00:04:45;;;;;;;16.75;9.30;;;;;;;;;;5021296;28;20052;-59
2022/01/31 00:07:11;;;;;;;18.15;9.70;;;;;;;;;;5025731;28;20033;-60
2022/01/31 00:09:43;;;;;;;15.50;9.15;;;;;;;;;;5027858;28;20540;-60
2022/01/31 00:12:17;;;;;;;24.95;14.10;;;;;;;;;;5024023;28;20041;-59
2022/01/31 00:14:45;;;;;;;28.60;17.25;;;;;;;;;;5020887;28;20025;-60
2022/01/31 00:17:12;;;;;;;25.60;15.15;;;;;;;;;;5023380;28;20030;-60
2022/01/31 00:19:40;;;;;;;18.00;13.60;;;;;;;;;;5026873;28;20069;-60
2022/01/31 00:22:07;;;;;;;12.25;10.52;;;;;;;;;;5026799;28;20034;-59
2022/01/31 00:24:34;;;;;;;9.23;7.97;;;;;;;;;;5021448;28;20037;-60
2022/01/31 00:27:00;;;;;;;8.48;6.28;;;;;;;;;;5022457;28;20092;-60
2022/01/31 00:29:26;;;;;;;10.02;6.63;;;;;;;;;;5025032;28;20053;-60
2022/01/31 00:31:52;;;;;;;6.60;5.25;;;;;;;;;;5023341;28;20121;-59
2022/01/31 00:34:18;;;;;;;15.93;10.23;;;;;;;;;;5021119;28;20071;-59
2022/01/31 00:36:44;;;;;;;12.23;10.40;;;;;;;;;;5020188;28;20037;-59
2022/01/31 00:39:10;;;;;;;13.63;10.88;;;;;;;;;;5025708;28;20469;-60
2022/01/31 00:41:36;;;;;;;11.73;9.23;;;;;;;;;;5024938;28;20044;-59
2022/01/31 00:44:15;;;;;;;16.05;10.35;;;;;;;;;;5020737;28;20040;-59
2022/01/31 00:46:45;;;;;;;12.40;8.70;;;;;;;;;;5020750;28;20112;-60
2022/01/31 00:49:27;;;;;;;16.50;11.50;;;;;;;;;;5024235;28;20137;-59
2022/01/31 00:51:54;;;;;;;14.75;9.82;;;;;;;;;;5024667;28;20040;-60
2022/01/31 00:54:21;;;;;;;13.98;8.23;;;;;;;;;;5024500;28;20843;-59
2022/01/31 00:56:48;;;;;;;8.85;7.30;;;;;;;;;;5025335;28;20466;-59
2022/01/31 00:59:14;;;;;;;7.57;6.78;;;;;;;;;;5023264;28;20855;-59
2022/01/31 01:01:39;;;;;;;10.40;7.90;;;;;;;;;;5018772;28;20112;-59
2022/01/31 01:04:05;;;;;;;11.57;8.23;;;;;;;;;;5028741;28;20452;-59
2022/01/31 01:06:31;;;;;;;9.68;7.25;;;;;;;;;;5021987;28;20060;-59
2022/01/31 01:08:57;;;;;;;11.55;7.72;;;;;;;;;;5025138;28;20394;-60
2022/01/31 01:11:23;;;;;;;16.55;8.75;;;;;;;;;;5020801;28;20058;-59
2022/01/31 01:13:48;;;;;;;39.25;18.52;;;;;;;;;;5024304;28;20044;-59
2022/01/31 01:16:14;;;;;;;25.15;13.77;;;;;;;;;;5024761;28;20034;-60
2022/01/31 01:18:39;;;;;;;11.82;8.10;;;;;;;;;;5026115;28;20569;-59
2022/01/31 01:21:05;;;;;;;13.73;9.20;;;;;;;;;;5025258;28;20030;-59
2022/01/31 01:23:31;;;;;;;27.80;13.77;;;;;;;;;;5019801;28;20029;-59
2022/01/31 01:25:57;;;;;;;16.33;10.85;;;;;;;;;;5023353;28;20037;-59
2022/01/31 01:28:25;;;;;;;15.07;8.73;;;;;;;;;;5018145;28;20033;-59
2022/01/31 01:30:50;;;;;;;10.32;7.80;;;;;;;;;;5025579;28;20045;-59
2022/01/31 01:33:21;;;;;;;18.92;11.13;;;;;;;;;;5021175;28;20116;-60
2022/01/31 01:35:50;;;;;;;12.00;8.98;;;;;;;;;;5019274;28;20030;-59
2022/01/31 01:38:17;;;;;;;12.05;9.52;;;;;;;;;;5020117;28;20412;-59
2022/01/31 01:40:46;;;;;;;13.43;8.73;;;;;;;;;;5025822;28;20061;-59
2022/01/31 01:43:13;;;;;;;11.63;8.07;;;;;;;;;;5022700;28;20108;-59
2022/01/31 01:45:40;;;;;;;12.85;9.68;;;;;;;;;;5024409;28;20026;-59
2022/01/31 01:48:07;;;;;;;13.75;9.25;;;;;;;;;;5019861;28;20470;-59
2022/01/31 01:50:37;;;;;;;43.28;19.70;;;;;;;;;;5020707;28;20497;-59
2022/01/31 01:53:04;;;;;;;26.80;13.90;;;;;;;;;;5015581;28;20418;-60
2022/01/31 01:55:30;;;;;;;14.13;8.73;;;;;;;;;;5017436;28;20099;-58
2022/01/31 01:57:56;;;;;;;14.65;8.68;;;;;;;;;;5023983;28;20045;-59
2022/01/31 02:00:27;;;;;;;13.18;8.32;;;;;;;;;;5019624;28;20061;-60
2022/01/31 02:02:55;;;;;;;12.77;7.93;;;;;;;;;;5021180;28;20135;-59
2022/01/31 02:05:21;;;;;;;11.60;8.25;;;;;;;;;;5016580;28;20040;-59
2022/01/31 02:07:47;;;;;;;11.88;9.30;;;;;;;;;;5020670;28;20053;-60
2022/01/31 02:10:15;;;;;;;16.30;8.82;;;;;;;;;;5018260;28;20072;-59
2022/01/31 02:12:47;;;;;;;11.50;8.50;;;;;;;;;;5023498;28;20494;-59
2022/01/31 02:15:15;;;;;;;12.32;8.13;;;;;;;;;;5015024;28;20068;-59
2022/01/31 02:17:41;;;;;;;12.65;8.80;;;;;;;;;;5022809;28;20033;-59
2022/01/31 02:20:09;;;;;;;11.40;8.68;;;;;;;;;;5023963;28;20501;-59
2022/01/31 02:22:36;;;;;;;12.57;8.60;;;;;;;;;;5022884;28;20042;-59
2022/01/31 02:25:03;;;;;;;11.88;8.65;;;;;;;;;;5018480;28;20037;-59
2022/01/31 02:27:32;;;;;;;14.18;9.43;;;;;;;;;;5022802;28;20080;-60
2022/01/31 02:29:57;;;;;;;10.82;8.15;;;;;;;;;;5022982;28;20060;-59
2022/01/31 02:32:25;;;;;;;12.45;9.27;;;;;;;;;;5019902;28;20474;-59
2022/01/31 02:34:52;;;;;;;13.68;9.73;;;;;;;;;;5020407;28;20471;-58
2022/01/31 02:37:19;;;;;;;15.82;9.07;;;;;;;;;;5026361;28;20487;-59
2022/01/31 02:39:45;;;;;;;17.92;10.68;;;;;;;;;;5029029;28;20040;-59
2022/01/31 02:42:13;;;;;;;13.85;9.55;;;;;;;;;;5024842;28;20116;-59
2022/01/31 02:44:42;;;;;;;13.07;9.93;;;;;;;;;;5025516;28;20072;-60
2022/01/31 02:47:24;;;;;;;19.05;9.63;;;;;;;;;;5022963;28;20037;-59
2022/01/31 02:49:56;;;;;;;16.02;10.07;;;;;;;;;;5024609;28;20049;-59
2022/01/31 02:52:24;;;;;;;14.35;9.95;;;;;;;;;;5020590;28;20069;-60
2022/01/31 02:54:50;;;;;;;15.65;10.18;;;;;;;;;;5023609;28;20038;-59
2022/01/31 02:57:16;;;;;;;18.55;11.07;;;;;;;;;;5024350;28;20055;-59
2022/01/31 02:59:41;;;;;;;14.13;9.50;;;;;;;;;;5022914;28;20363;-59
2022/01/31 03:02:07;;;;;;;13.75;9.30;;;;;;;;;;5023219;28;20487;-59
2022/01/31 03:04:33;;;;;;;15.10;10.70;;;;;;;;;;5020031;28;20064;-59
2022/01/31 03:06:59;;;;;;;17.85;9.25;;;;;;;;;;5025790;28;20030;-59
2022/01/31 03:09:25;;;;;;;15.07;9.90;;;;;;;;;;5023587;28;20497;-59
2022/01/31 03:11:51;;;;;;;18.70;10.10;;;;;;;;;;5025931;28;20053;-59
2022/01/31 03:14:19;;;;;;;15.57;10.30;;;;;;;;;;5018138;28;20037;-59
2022/01/31 03:16:46;;;;;;;13.43;10.40;;;;;;;;;;5019332;28;20037;-59
2022/01/31 03:19:13;;;;;;;14.82;9.52;;;;;;;;;;5027376;28;20437;-59
2022/01/31 03:21:39;;;;;;;15.38;9.25;;;;;;;;;;5022395;28;20034;-59
2022/01/31 03:24:06;;;;;;;16.05;9.50;;;;;;;;;;5020699;28;20537;-59
2022/01/31 03:26:31;;;;;;;17.23;9.45;;;;;;;;;;5023729;28;20040;-59
2022/01/31 03:28:57;;;;;;;15.40;8.95;;;;;;;;;;5023774;28;20108;-59
2022/01/31 03:31:24;;;;;;;12.95;8.82;;;;;;;;;;5028417;28;20461;-59
2022/01/31 03:33:51;;;;;;;11.65;9.55;;;;;;;;;;5024241;28;20044;-59
2022/01/31 03:36:18;;;;;;;12.30;9.18;;;;;;;;;;5018164;28;20172;-60
2022/01/31 03:38:44;;;;;;;14.23;9.52;;;;;;;;;;5023264;28;20036;-60
2022/01/31 03:41:12;;;;;;;14.63;9.75;;;;;;;;;;5024211;28;20120;-60
2022/01/31 03:43:38;;;;;;;16.70;9.07;;;;;;;;;;5026059;28;20037;-59
2022/01/31 03:46:05;;;;;;;10.80;8.52;;;;;;;;;;5020605;28;20425;-59
2022/01/31 03:48:31;;;;;;;12.40;8.40;;;;;;;;;;5022289;28;20033;-59
2022/01/31 03:50:58;;;;;;;12.23;8.20;;;;;;;;;;5020101;28;20044;-59
2022/01/31 03:53:24;;;;;;;10.70;7.25;;;;;;;;;;5024889;28;20461;-59
2022/01/31 03:55:50;;;;;;;12.35;7.25;;;;;;;;;;5021169;28;20037;-59
2022/01/31 03:58:16;;;;;;;13.27;7.60;;;;;;;;;;5023947;28;20029;-59
2022/01/31 04:00:42;;;;;;;8.52;6.50;;;;;;;;;;5024275;28;20034;-59
2022/01/31 04:03:09;;;;;;;7.63;4.82;;;;;;;;;;5024777;28;20056;-59
2022/01/31 04:05:37;;;;;;;7.28;5.15;;;;;;;;;;5027312;28;20029;-59
2022/01/31 04:08:06;;;;;;;8.20;5.53;;;;;;;;;;5023118;28;20385;-60
2022/01/31 04:10:34;;;;;;;10.52;6.47;;;;;;;;;;5018865;28;20052;-60
2022/01/31 04:13:00;;;;;;;11.10;6.30;;;;;;;;;;5024251;28;20048;-59
2022/01/31 04:15:27;;;;;;;7.22;6.07;;;;;;;;;;5022127;28;20682;-59
2022/01/31 04:17:53;;;;;;;6.68;5.97;;;;;;;;;;5021138;28;20064;-59
2022/01/31 04:20:19;;;;;;;10.45;6.40;;;;;;;;;;5019652;28;20371;-59
2022/01/31 04:22:53;;;;;;;11.73;5.97;;;;;;;;;;5021127;28;20087;-60
2022/01/31 04:28:05;;;;;;;11.52;6.30;;;;;;;;;;5022522;28;20030;-59
2022/01/31 04:30:35;;;;;;;8.90;5.90;;;;;;;;;;5022584;28;20064;-59
2022/01/31 04:33:01;;;;;;;7.68;6.25;;;;;;;;;;5022372;28;20466;-59
2022/01/31 04:35:27;;;;;;;8.77;6.90;;;;;;;;;;5021098;28;20117;-60
2022/01/31 04:37:53;;;;;;;8.18;6.47;;;;;;;;;;5024906;28;20049;-60
2022/01/31 04:40:19;;;;;;;8.68;6.32;;;;;;;;;;5021432;28;20064;-60
2022/01/31 04:42:45;;;;;;;11.65;6.72;;;;;;;;;;5018439;28;20030;-59
2022/01/31 04:45:12;;;;;;;7.65;4.25;;;;;;;;;;5025541;28;20033;-59
2022/01/31 04:47:38;;;;;;;3.95;2.72;;;;;;;;;;5023974;28;20034;-59
2022/01/31 04:50:05;;;;;;;9.40;3.33;;;;;;;;;;5022490;28;20033;-59
2022/01/31 04:52:31;;;;;;;5.50;2.60;;;;;;;;;;5019782;28;20065;-59
2022/01/31 04:54:57;;;;;;;5.53;2.90;;;;;;;;;;5023191;28;20091;-59
2022/01/31 04:57:23;;;;;;;6.75;3.00;;;;;;;;;;5023940;28;20083;-59
2022/01/31 04:59:50;;;;;;;5.80;2.97;;;;;;;;;;5016984;28;20026;-60
2022/01/31 05:02:16;;;;;;;4.63;2.75;;;;;;;;;;5023110;28;20032;-59
2022/01/31 05:04:41;;;;;;;5.70;3.28;;;;;;;;;;5022928;28;20390;-59
2022/01/31 05:07:07;;;;;;;4.05;2.60;;;;;;;;;;5025356;28;20034;-59
2022/01/31 05:09:33;;;;;;;6.55;3.15;;;;;;;;;;5025610;28;20359;-59
2022/01/31 05:11:59;;;;;;;3.40;2.55;;;;;;;;;;5022903;28;20107;-60
2022/01/31 05:14:25;;;;;;;5.50;2.78;;;;;;;;;;5017580;28;20038;-59
2022/01/31 05:16:51;;;;;;;4.85;2.60;;;;;;;;;;5024834;28;20385;-59
2022/01/31 05:19:17;;;;;;;3.45;2.40;;;;;;;;;;5020814;28;20022;-59
2022/01/31 05:21:43;;;;;;;5.07;2.55;;;;;;;;;;5023068;28;20491;-59
2022/01/31 05:24:10;;;;;;;4.60;2.42;;;;;;;;;;5019022;28;20109;-59
2022/01/31 05:26:36;;;;;;;3.72;2.20;;;;;;;;;;5024651;28;20079;-59
2022/01/31 05:29:02;;;;;;;4.78;2.30;;;;;;;;;;5018646;28;20033;-59
2022/01/31 05:31:28;;;;;;;2.80;2.50;;;;;;;;;;5020995;28;20030;-59
2022/01/31 05:33:54;;;;;;;4.45;2.40;;;;;;;;;;5018430;28;20033;-59
2022/01/31 05:36:21;;;;;;;6.13;2.45;;;;;;;;;;5021575;28;20048;-59
2022/01/31 05:38:47;;;;;;;2.90;2.35;;;;;;;;;;5024209;28;20125;-59
2022/01/31 05:41:18;;;;;;;5.22;2.22;;;;;;;;;;5019529;28;20120;-59
2022/01/31 05:43:45;;;;;;;4.32;2.70;;;;;;;;;;5017221;28;20304;-59
2022/01/31 05:46:10;;;;;;;5.10;2.65;;;;;;;;;;5019571;28;20038;-60
2022/01/31 05:48:36;;;;;;;5.25;3.28;;;;;;;;;;5022344;28;20080;-59
2022/01/31 05:51:03;;;;;;;3.88;2.65;;;;;;;;;;5021494;28;20091;-60
2022/01/31 05:53:30;;;;;;;4.53;2.00;;;;;;;;;;5020527;28;20129;-60
2022/01/31 05:55:57;;;;;;;2.97;2.28;;;;;;;;;;5017551;28;20163;-59
2022/01/31 05:58:24;;;;;;;3.78;2.50;;;;;;;;;;5020569;28;20038;-59
2022/01/31 06:00:50;;;;;;;4.28;2.40;;;;;;;;;;5022421;28;20041;-59
2022/01/31 06:03:15;;;;;;;4.25;2.35;;;;;;;;;;5023139;28;20029;-59
2022/01/31 06:05:41;;;;;;;3.35;2.30;;;;;;;;;;5019576;28;20101;-59
2022/01/31 06:08:07;;;;;;;3.55;2.30;;;;;;;;;;5021380;28;20462;-60
2022/01/31 06:10:40;;;;;;;8.27;2.42;;;;;;;;;;5019010;28;20028;-59
2022/01/31 06:13:06;;;;;;;5.28;2.33;;;;;;;;;;5027876;28;20409;-59
2022/01/31 06:15:31;;;;;;;6.22;2.30;;;;;;;;;;5023963;28;20044;-59
2022/01/31 06:17:57;;;;;;;3.92;2.42;;;;;;;;;;5022823;28;20029;-59
2022/01/31 06:20:23;;;;;;;2.47;1.95;;;;;;;;;;5022209;28;20028;-60
2022/01/31 06:22:51;;;;;;;3.10;2.72;;;;;;;;;;5021115;28;20055;-60
2022/01/31 06:25:18;;;;;;;2.30;2.10;;;;;;;;;;5022989;28;20059;-59
2022/01/31 06:27:44;;;;;;;7.47;2.63;;;;;;;;;;5030390;28;20037;-59
2022/01/31 06:30:10;;;;;;;4.70;2.90;;;;;;;;;;5024406;28;20049;-59
2022/01/31 06:32:36;;;;;;;5.25;3.08;;;;;;;;;;5019346;28;20040;-60
2022/01/31 06:35:03;;;;;;;7.97;4.03;;;;;;;;;;5022222;28;20407;-59
2022/01/31 06:37:29;;;;;;;5.15;4.13;;;;;;;;;;5021416;28;20030;-60
2022/01/31 06:39:55;;;;;;;4.63;3.85;;;;;;;;;;5023379;28;20091;-60
2022/01/31 06:42:20;;;;;;;7.43;4.82;;;;;;;;;;5021477;28;20033;-60
2022/01/31 06:44:46;;;;;;;9.80;6.20;;;;;;;;;;5024686;28;20470;-60
2022/01/31 06:47:12;;;;;;;9.18;5.60;;;;;;;;;;5021392;28;20074;-60
2022/01/31 06:49:38;;;;;;;6.68;5.82;;;;;;;;;;5022906;28;20076;-60
2022/01/31 06:52:04;;;;;;;6.65;4.63;;;;;;;;;;5026355;28;20402;-59
2022/01/31 06:54:30;;;;;;;9.43;5.57;;;;;;;;;;5026647;28;20041;-59
2022/01/31 06:56:57;;;;;;;11.48;4.28;;;;;;;;;;5021317;28;20608;-60
2022/01/31 06:59:23;;;;;;;8.38;4.32;;;;;;;;;;5025139;28;20036;-60
2022/01/31 07:01:49;;;;;;;10.75;4.43;;;;;;;;;;5021627;28;20033;-60
2022/01/31 07:04:15;;;;;;;4.00;3.63;;;;;;;;;;5023274;28;20118;-60
2022/01/31 07:06:41;;;;;;;4.90;3.58;;;;;;;;;;5022714;28;20084;-60
2022/01/31 07:09:07;;;;;;;6.82;3.30;;;;;;;;;;5025001;28;20030;-60
2022/01/31 07:11:38;;;;;;;6.43;3.20;;;;;;;;;;5023803;28;20045;-60
2022/01/31 07:14:07;;;;;;;3.60;3.20;;;;;;;;;;5024582;28;20048;-59
2022/01/31 07:16:34;;;;;;;7.03;2.88;;;;;;;;;;5024079;28;20021;-60
2022/01/31 07:19:08;;;;;;;10.05;3.13;;;;;;;;;;5020858;28;20048;-60
2022/01/31 07:21:46;;;;;;;5.60;2.78;;;;;;;;;;5022398;28;20075;-60
2022/01/31 07:26:48;;;;;;;8.40;3.10;;;;;;;;;;5026774;28;20036;-59
2022/01/31 07:29:14;;;;;;;5.10;2.17;;;;;;;;;;5019238;28;20359;-60
2022/01/31 07:31:41;;;;;;;4.10;2.05;;;;;;;;;;5022145;28;20465;-60
2022/01/31 07:34:07;;;;;;;3.60;2.47;;;;;;;;;;5025133;28;20029;-60
2022/01/31 07:36:33;;;;;;;3.83;2.58;;;;;;;;;;5021699;28;20045;-59
2022/01/31 07:38:59;;;;;;;12.32;3.13;;;;;;;;;;5021290;28;20043;-60
2022/01/31 07:41:25;;;;;;;6.32;2.67;;;;;;;;;;5018878;28;20063;-60
2022/01/31 07:43:51;;;;;;;6.88;2.88;;;;;;;;;;5022842;28;20580;-60
2022/01/31 07:46:18;;;;;;;7.53;2.20;;;;;;;;;;5017048;28;20038;-60
2022/01/31 07:48:43;;;;;;;3.72;3.33;;;;;;;;;;5017311;28;20026;-60
2022/01/31 07:51:09;;;;;;;5.75;2.42;;;;;;;;;;5022040;28;20030;-59
2022/01/31 07:53:38;;;;;;;11.90;2.42;;;;;;;;;;5022310;28;20152;-59
2022/01/31 07:56:07;;;;;;;3.78;2.50;;;;;;;;;;5022367;28;20052;-60
2022/01/31 07:58:34;;;;;;;8.15;2.20;;;;;;;;;;5018127;28;20036;-60
2022/01/31 08:01:00;;;;;;;3.63;2.60;;;;;;;;;;5025139;28;20152;-59
2022/01/31 08:03:26;;;;;;;5.38;2.78;;;;;;;;;;5026359;28;20029;-59
2022/01/31 08:05:52;;;;;;;9.75;2.72;;;;;;;;;;5021559;28;20045;-59
2022/01/31 08:08:17;;;;;;;6.95;2.60;;;;;;;;;;5018255;28;20159;-60
2022/01/31 08:10:43;;;;;;;4.30;2.45;;;;;;;;;;5021190;28;20029;-59
2022/01/31 08:13:10;;;;;;;9.98;3.08;;;;;;;;;;5023097;28;20089;-60
2022/01/31 08:18:21;;;;;;;2.65;2.10;;;;;;;;;;5019124;28;20368;-59
2022/01/31 08:20:47;;;;;;;3.35;2.58;;;;;;;;;;5019624;28;20059;-59
2022/01/31 08:23:12;;;;;;;5.50;2.05;;;;;;;;;;5022937;28;20087;-59
2022/01/31 08:25:38;;;;;;;2.95;2.05;;;;;;;;;;5020079;28;20040;-60
2022/01/31 08:28:11;;;;;;;10.68;2.40;;;;;;;;;;5016613;28;20052;-60
2022/01/31 08:30:47;;;;;;;4.45;2.05;;;;;;;;;;5020469;28;20069;-60
2022/01/31 08:33:25;;;;;;;4.43;2.15;;;;;;;;;;5019954;28;20049;-60
2022/01/31 08:35:52;;;;;;;2.33;2.05;;;;;;;;;;5020282;28;20522;-60
2022/01/31 08:38:18;;;;;;;4.40;1.88;;;;;;;;;;5019232;28;20033;-60
2022/01/31 08:40:45;;;;;;;8.20;2.75;;;;;;;;;;5020965;28;20521;-60
2022/01/31 08:43:12;;;;;;;9.60;1.95;;;;;;;;;;5023153;28;20120;-60
2022/01/31 08:45:38;;;;;;;1.85;1.45;;;;;;;;;;5021003;28;20422;-60
2022/01/31 08:48:04;;;;;;;2.65;1.83;;;;;;;;;;5021425;28;20037;-59
2022/01/31 08:50:30;;;;;;;3.70;2.75;;;;;;;;;;5021129;28;20544;-60
2022/01/31 08:52:57;;;;;;;2.38;1.85;;;;;;;;;;5016549;28;20029;-60
2022/01/31 08:55:23;;;;;;;3.15;1.50;;;;;;;;;;5021144;28;20030;-60
2022/01/31 08:57:53;;;;;;;6.78;1.95;;;;;;;;;;5020644;28;20040;-59
2022/01/31 09:00:20;;;;;;;15.13;2.10;;;;;;;;;;5020751;28;20092;-60
2022/01/31 09:03:01;;;;;;;7.00;1.80;;;;;;;;;;5018435;28;20478;-59
2022/01/31 09:05:27;;;;;;;1.73;1.50;;;;;;;;;;5018930;28;21245;-59
2022/01/31 09:07:52;;;;;;;10.80;1.58;;;;;;;;;;5023372;28;20112;-59
2022/01/31 09:10:18;;;;;;;1.83;1.30;;;;;;;;;;5017404;28;20136;-60
2022/01/31 09:12:44;;;;;;;7.28;1.40;;;;;;;;;;5020671;28;20116;-60
2022/01/31 09:15:12;;;;;;;2.80;1.40;;;;;;;;;;5020476;28;20124;-58
2022/01/31 09:17:39;;;;;;;4.70;1.73;;;;;;;;;;5019354;28;20033;-59
2022/01/31 09:20:06;;;;;;;5.35;1.20;;;;;;;;;;5017132;28;20030;-59
2022/01/31 09:22:32;;;;;;;4.90;1.65;;;;;;;;;;5023421;28;20422;-59
2022/01/31 09:24:57;;;;;;;4.20;1.40;;;;;;;;;;5021900;28;20026;-59
2022/01/31 09:27:23;;;;;;;7.90;1.50;;;;;;;;;;5022213;28;20583;-59
2022/01/31 09:29:49;;;;;;;2.60;1.80;;;;;;;;;;5018694;28;20490;-59
2022/01/31 09:32:20;;;;;;;1.38;1.17;;;;;;;;;;5019548;28;20431;-59
2022/01/31 09:34:46;;;;;;;8.60;2.33;;;;;;;;;;5018937;28;20036;-59
2022/01/31 09:37:12;;;;;;;1.77;1.38;;;;;;;;;;5019330;28;20037;-59
2022/01/31 09:39:38;;;;;;;4.75;1.67;;;;;;;;;;5018765;28;20037;-59
2022/01/31 09:42:08;;;;;;;5.78;1.73;;;;;;;;;;5018204;28;20056;-59
2022/01/31 09:44:47;;;;;;;6.03;2.22;;;;;;;;;;5020216;28;20028;-60
2022/01/31 09:49:44;;;;;;;3.58;1.50;;;;;;;;;;5013137;28;20056;-60
2022/01/31 09:52:10;;;;;;;5.55;1.67;;;;;;;;;;5018042;28;20034;-59
2022/01/31 09:54:36;;;;;;;5.35;1.40;;;;;;;;;;5018454;28;20037;-59
2022/01/31 09:57:01;;;;;;;4.07;1.30;;;;;;;;;;5023761;28;20374;-59
2022/01/31 09:59:27;;;;;;;1.83;1.63;;;;;;;;;;5021788;28;20047;-59
2022/01/31 10:01:55;;;;;;;3.35;1.15;;;;;;;;;;5018149;28;20117;-59
2022/01/31 10:04:23;;;;;;;6.32;1.35;;;;;;;;;;5008383;28;20103;-59
2022/01/31 10:06:52;;;;;;;2.45;1.20;;;;;;;;;;5018569;28;20034;-59
2022/01/31 10:09:21;;;;;;;3.70;1.20;;;;;;;;;;5018844;28;20056;-60
2022/01/31 10:12:03;;;;;;;6.35;1.33;;;;;;;;;;5019519;28;20065;-59
2022/01/31 10:17:28;;;;;;;5.43;1.40;;;;;;;;;;5018819;28;20060;-59
2022/01/31 10:20:00;;;;;;;2.65;1.08;;;;;;;;;;5017020;28;20560;-59
2022/01/31 10:22:29;;;;;;;1.58;1.10;;;;;;;;;;5017212;28;20466;-60
2022/01/31 10:24:58;;;;;;;2.08;1.38;;;;;;;;;;5019738;28;20057;-58
2022/01/31 10:27:29;;;;;;;2.25;1.20;;;;;;;;;;5019613;28;20064;-59
2022/01/31 10:30:19;;;;;;;4.20;0.95;;;;;;;;;;5016020;28;20162;-60
2022/01/31 10:32:47;;;;;;;5.38;1.00;;;;;;;;;;5016666;28;20032;-58
2022/01/31 10:35:22;;;;;;;5.50;1.30;;;;;;;;;;5016940;28;20065;-59
2022/01/31 10:37:49;;;;;;;3.10;1.10;;;;;;;;;;5016145;28;20112;-60
2022/01/31 10:57:04;;;;;;;11.98;1.30;;;;;;;;;;5022845;28;20022;-60
2022/01/31 10:59:32;;;;;;;4.78;1.42;;;;;;;;;;5023739;28;20116;-59
2022/01/31 11:02:00;;;;;;;1.95;1.35;;;;;;;;;;5017835;28;20041;-60
2022/01/31 11:04:31;;;;;;;2.70;1.10;;;;;;;;;;5022754;28;20492;-60
2022/01/31 11:07:00;;;;;;;5.33;1.10;;;;;;;;;;5022634;28;20486;-59
2022/01/31 11:09:29;;;;;;;9.48;1.23;;;;;;;;;;5023136;28;20433;-59
2022/01/31 11:11:55;;;;;;;1.02;0.90;;;;;;;;;;5026406;28;20030;-59
2022/01/31 11:14:21;;;;;;;2.05;0.98;;;;;;;;;;5021304;28;20174;-60
2022/01/31 11:16:49;;;;;;;1.98;1.20;;;;;;;;;;5019796;28;20037;-59
2022/01/31 11:19:21;;;;;;;3.53;1.00;;;;;;;;;;5020550;28;20118;-59
2022/01/31 11:21:50;;;;;;;4.47;1.48;;;;;;;;;;5025821;28;20083;-59
2022/01/31 11:24:20;;;;;;;1.10;0.90;;;;;;;;;;5019503;28;20033;-59
2022/01/31 11:26:51;;;;;;;5.47;1.60;;;;;;;;;;5024259;28;20033;-59
2022/01/31 11:29:18;;;;;;;6.97;1.27;;;;;;;;;;5022836;28;20049;-59
2022/01/31 11:31:45;;;;;;;0.82;0.80;;;;;;;;;;5017402;28;20057;-60
2022/01/31 11:34:11;;;;;;;3.35;1.02;;;;;;;;;;5020050;28;20037;-59
2022/01/31 11:36:38;;;;;;;1.02;0.93;;;;;;;;;;5023390;28;20055;-60
2022/01/31 11:39:09;;;;;;;3.13;0.90;;;;;;;;;;5019992;28;20042;-60
2022/01/31 11:41:41;;;;;;;1.80;0.80;;;;;;;;;;5025350;28;20048;-59
2022/01/31 11:44:17;;;;;;;3.10;1.10;;;;;;;;;;5024266;28;20266;-59
2022/01/31 11:46:43;;;;;;;4.32;1.10;;;;;;;;;;5020749;28;20282;-60
2022/01/31 11:49:12;;;;;;;2.83;1.15;;;;;;;;;;5020399;28;20041;-59
2022/01/31 11:52:02;;;;;;;1.02;0.93;;;;;;;;;;5022486;28;20386;-59
2022/01/31 11:54:28;;;;;;;5.30;1.10;;;;;;;;;;5017321;28;20041;-59
2022/01/31 11:56:54;;;;;;;4.13;0.93;;;;;;;;;;5018670;28;20037;-59
2022/01/31 11:59:22;;;;;;;3.13;0.98;;;;;;;;;;5019944;28;20056;-59
2022/01/31 12:01:52;;;;;;;2.47;0.90;;;;;;;;;;5018036;28;20047;-59
2022/01/31 12:04:31;;;;;;;5.15;0.98;;;;;;;;;;5023256;28;20597;-60
2022/01/31 12:06:57;;;;;;;1.48;1.38;;;;;;;;;;5024251;28;20025;-59
2022/01/31 12:09:26;;;;;;;2.28;1.30;;;;;;;;;;5020837;28;20462;-59
2022/01/31 12:11:57;;;;;;;3.17;1.17;;;;;;;;;;5022736;28;20148;-59
2022/01/31 12:14:31;;;;;;;6.13;1.38;;;;;;;;;;5023950;28;20036;-59
2022/01/31 12:17:22;;;;;;;7.45;4.35;;;;;;;;;;5023932;28;20604;-59
2022/01/31 12:20:02;;;;;;;1.48;1.20;;;;;;;;;;5022141;28;20053;-59
2022/01/31 12:22:40;;;;;;;1.30;1.20;;;;;;;;;;5021013;28;20038;-59
2022/01/31 12:25:29;;;;;;;6.47;1.20;;;;;;;;;;5021266;28;20383;-59
2022/01/31 12:27:56;;;;;;;1.30;1.00;;;;;;;;;;5024018;28;20549;-59
2022/01/31 12:30:48;;;;;;;4.43;1.15;;;;;;;;;;5022870;28;20053;-59
2022/01/31 12:33:39;;;;;;;1.43;1.10;;;;;;;;;;5020918;28;20060;-59
2022/01/31 12:36:06;;;;;;;1.20;1.00;;;;;;;;;;5024539;28;20361;-59
2022/01/31 12:38:33;;;;;;;0.80;0.80;;;;;;;;;;5023258;28;20033;-59
2022/01/31 12:41:05;;;;;;;3.65;0.98;;;;;;;;;;5021409;28;20105;-59
2022/01/31 12:43:56;;;;;;;1.02;0.80;;;;;;;;;;5019691;28;20045;-59
2022/01/31 12:46:17;;;;;;;1.88;0.85;;;;;;;;;;5017262;28;20151;-59
2022/01/31 12:49:07;;;;;;;3.08;1.25;;;;;;;;;;5025898;28;20440;-59
2022/01/31 12:52:04;;;;;;;1.77;0.63;;;;;;;;;;5022653;28;20017;-59
2022/01/31 12:54:30;;;;;;;1.25;1.00;;;;;;;;;;5021618;28;20586;-59
2022/01/31 12:57:05;;;;;;;2.97;1.08;;;;;;;;;;5018413;28;20053;-59
2022/01/31 12:59:31;;;;;;;2.90;0.82;;;;;;;;;;5019731;28;20037;-59
2022/01/31 13:01:58;;;;;;;0.85;0.85;;;;;;;;;;5018782;28;20040;-59
2022/01/31 13:04:27;;;;;;;7.35;0.95;;;;;;;;;;5020815;28;20033;-59
2022/01/31 13:06:56;;;;;;;7.93;0.80;;;;;;;;;;5018878;28;20030;-58
2022/01/31 13:09:27;;;;;;;0.88;0.65;;;;;;;;;;5018734;28;20034;-59
2022/01/31 13:11:53;;;;;;;6.53;0.82;;;;;;;;;;5019616;28;20766;-59
2022/01/31 13:14:31;;;;;;;0.98;0.80;;;;;;;;;;5014912;28;20044;-59
2022/01/31 13:17:23;;;;;;;0.63;0.63;;;;;;;;;;5018228;28;20033;-59
2022/01/31 13:19:52;;;;;;;0.60;0.60;;;;;;;;;;5015167;28;20091;-59
2022/01/31 13:22:32;;;;;;;1.38;0.82;;;;;;;;;;5015916;28;20045;-59
2022/01/31 13:25:24;;;;;;;5.15;0.70;;;;;;;;;;5018669;28;20037;-59
2022/01/31 13:27:49;;;;;;;0.40;0.40;;;;;;;;;;5017874;28;20090;-59
2022/01/31 13:30:21;;;;;;;6.45;0.77;;;;;;;;;;5015848;28;20054;-59
2022/01/31 13:32:48;;;;;;;3.28;0.80;;;;;;;;;;5021774;28;20532;-59
2022/01/31 13:35:20;;;;;;;0.70;0.60;;;;;;;;;;5016388;28;20100;-59
2022/01/31 13:37:52;;;;;;;;;;;;;;;;;;5021572;28;20040;-59
2022/01/31 13:40:25;;;;;;;0.93;0.93;;;;;;;;;;5023068;28;19926;-59
2022/01/31 13:43:10;;;;;;;1.02;0.75;;;;;;;;;;5019041;28;20025;-58
2022/01/31 13:45:46;;;;;;;1.48;0.95;;;;;;;;;;5019073;28;20041;-59
2022/01/31 13:48:26;;;;;;;15.75;1.08;;;;;;;;;;5020725;28;20026;-59
2022/01/31 13:50:57;;;;;;;7.40;1.17;;;;;;;;;;5022329;28;20053;-59
2022/01/31 13:53:31;;;;;;;0.83;0.83;;;;;;;;;;5019961;28;20622;-59
2022/01/31 13:55:58;;;;;;;0.90;0.73;;;;;;;;;;5016352;28;20748;-59
2022/01/31 13:58:30;;;;;;;2.35;0.70;;;;;;;;;;5017067;28;20069;-60
2022/01/31 14:00:57;;;;;;;2.05;0.80;;;;;;;;;;5018671;28;20046;-60
2022/01/31 14:03:28;;;;;;;0.85;0.47;;;;;;;;;;5023894;28;20113;-60
2022/01/31 14:05:59;;;;;;;5.38;1.08;;;;;;;;;;5018758;28;20061;-59
2022/01/31 14:08:39;;;;;;;1.33;1.23;;;;;;;;;;5020451;28;20021;-59
2022/01/31 14:11:37;;;;;;;0.90;0.80;;;;;;;;;;5019410;28;20049;-60
2022/01/31 14:14:03;;;;;;;18.17;1.58;;;;;;;;;;5014182;28;20053;-60
2022/01/31 14:16:33;;;;;;;0.93;0.77;;;;;;;;;;5018913;28;20037;-59
2022/01/31 14:19:04;;;;;;;2.53;0.80;;;;;;;;;;5014554;28;20033;-60
2022/01/31 14:21:31;;;;;;;0.68;0.68;;;;;;;;;;5014827;28;20510;-59
2022/01/31 14:23:59;;;;;;;2.40;1.15;;;;;;;;;;5018799;28;20069;-60
2022/01/31 14:26:40;;;;;;;1.70;1.60;;;;;;;;;;5016711;28;20040;-60
2022/01/31 14:29:14;;;;;;;3.17;0.88;;;;;;;;;;5017774;28;20053;-60
2022/01/31 14:31:46;;;;;;;0.55;0.50;;;;;;;;;;5018990;28;20117;-59
2022/01/31 14:34:15;;;;;;;0.85;0.70;;;;;;;;;;5023431;28;20064;-59
2022/01/31 14:36:51;;;;;;;5.65;0.90;;;;;;;;;;5022396;28;20041;-59
2022/01/31 14:39:47;;;;;;;3.05;0.88;;;;;;;;;;5019212;28;20038;-59
2022/01/31 14:47:47;;;;;;;1.17;1.02;;;;;;;;;;5021328;28;20076;-59
2022/01/31 14:50:17;;;;;;;11.77;0.85;;;;;;;;;;5023435;28;20049;-59
2022/01/31 14:52:44;;;;;;;0.85;0.85;;;;;;;;;;5016723;28;20033;-59
2022/01/31 14:55:12;;;;;;;1.65;0.85;;;;;;;;;;5020081;28;20028;-60
2022/01/31 14:57:38;;;;;;;2.97;0.57;;;;;;;;;;5022031;28;20040;-59
2022/01/31 15:00:09;;;;;;;0.90;0.90;;;;;;;;;;5025620;28;20029;-59
2022/01/31 15:02:36;;;;;;;0.82;0.70;;;;;;;;;;5021279;28;22743;-59
2022/01/31 15:05:08;;;;;;;1.63;0.70;;;;;;;;;;5020588;28;20037;-59
2022/01/31 15:07:34;;;;;;;1.42;1.00;;;;;;;;;;5028850;28;20037;-59
2022/01/31 15:10:00;;;;;;;1.98;1.35;;;;;;;;;;5026472;28;20033;-59
2022/01/31 15:12:26;;;;;;;7.97;0.70;;;;;;;;;;5022371;28;20116;-59
2022/01/31 15:14:52;;;;;;;1.98;1.67;;;;;;;;;;5022094;28;20030;-60
2022/01/31 15:17:18;;;;;;;4.93;0.98;;;;;;;;;;5020989;28;20084;-59
2022/01/31 15:19:44;;;;;;;6.95;0.88;;;;;;;;;;5022443;28;20026;-59
2022/01/31 15:22:11;;;;;;;1.50;0.77;;;;;;;;;;5021233;28;20037;-59
2022/01/31 15:24:38;;;;;;;1.45;0.90;;;;;;;;;;5020949;28;20034;-59